< < Back
Terminal Aerodrome Forecast


Current Version              Previous Versions:   1  2  3  4  5  6  7  8  9  

Terminal Aerodrome Forecast

498
FTUS42 KJAX 170800 AAB
TAFJAX
TAF AMD
KJAX 170801Z 1708/1806 27005KT P6SM SCT010 BKN100
      TEMPO 1710/1712 BKN010
     FM171600 32007KT P6SM VCSH SCT030 BKN100
     FM172000 02006KT P6SM VCTS SCT035CB
     FM180100 VRB03KT P6SM SCT200=

Latest METAR

722
SAUS80 KWBC 170900
MTRJAX
METAR KJAX 170856Z 00000KT 10SM SCT035 SCT075 BKN150 22/22 A2990 RMK AO2
SLP126 T02170217 56013


USA.gov is the U.S. government's official web portal to all federal, state and local government web resources and services.